sensor_id;sensor_type;location;lat;lon;timestamp;P1;durP1;ratioP1;P2;durP2;ratioP2
35558;SDS011;21661;50.794;-1.066;2023-03-01T00:01:27;18.02;;;11.10;;
35558;SDS011;21661;50.794;-1.066;2023-03-01T00:03:53;17.25;;;11.10;;
35558;SDS011;21661;50.794;-1.066;2023-03-01T00:06:19;18.08;;;11.18;;
35558;SDS011;21661;50.794;-1.066;2023-03-01T00:08:45;18.50;;;10.88;;
35558;SDS011;21661;50.794;-1.066;2023-03-01T00:11:31;20.05;;;11.43;;
35558;SDS011;21661;50.794;-1.066;2023-03-01T00:13:58;20.27;;;11.82;;
35558;SDS011;21661;50.794;-1.066;2023-03-01T00:16:27;19.70;;;11.60;;
35558;SDS011;21661;50.794;-1.066;2023-03-01T00:18:58;15.55;;;10.45;;
35558;SDS011;21661;50.794;-1.066;2023-03-01T00:21:24;18.83;;;11.40;;
35558;SDS011;21661;50.794;-1.066;2023-03-01T00:23:51;18.58;;;10.95;;
35558;SDS011;21661;50.794;-1.066;2023-03-01T00:26:17;18.75;;;11.18;;
35558;SDS011;21661;50.794;-1.066;2023-03-01T00:28:44;18.30;;;11.68;;
35558;SDS011;21661;50.794;-1.066;2023-03-01T00:31:12;17.92;;;11.23;;
35558;SDS011;21661;50.794;-1.066;2023-03-01T00:33:43;19.83;;;12.15;;
35558;SDS011;21661;50.794;-1.066;2023-03-01T00:36:10;23.67;;;12.98;;
35558;SDS011;21661;50.794;-1.066;2023-03-01T00:38:37;18.98;;;11.90;;
35558;SDS011;21661;50.794;-1.066;2023-03-01T00:41:09;19.77;;;12.48;;
35558;SDS011;21661;50.794;-1.066;2023-03-01T00:43:36;18.70;;;12.18;;
35558;SDS011;21661;50.794;-1.066;2023-03-01T00:46:05;19.40;;;12.40;;
35558;SDS011;21661;50.794;-1.066;2023-03-01T00:48:33;18.08;;;11.95;;
35558;SDS011;21661;50.794;-1.066;2023-03-01T00:51:06;21.13;;;12.15;;
35558;SDS011;21661;50.794;-1.066;2023-03-01T00:53:46;19.67;;;12.30;;
35558;SDS011;21661;50.794;-1.066;2023-03-01T00:56:12;17.55;;;11.60;;
35558;SDS011;21661;50.794;-1.066;2023-03-01T00:58:39;19.15;;;11.75;;
35558;SDS011;21661;50.794;-1.066;2023-03-01T01:01:09;19.23;;;11.77;;
35558;SDS011;21661;50.794;-1.066;2023-03-01T01:03:42;18.63;;;11.68;;
35558;SDS011;21661;50.794;-1.066;2023-03-01T01:06:25;19.30;;;12.30;;
35558;SDS011;21661;50.794;-1.066;2023-03-01T01:08:51;19.88;;;11.85;;
35558;SDS011;21661;50.794;-1.066;2023-03-01T01:11:18;18.08;;;11.43;;
35558;SDS011;21661;50.794;-1.066;2023-03-01T01:13:45;21.15;;;11.73;;
35558;SDS011;21661;50.794;-1.066;2023-03-01T01:16:12;18.80;;;12.25;;
35558;SDS011;21661;50.794;-1.066;2023-03-01T01:18:38;22.13;;;12.20;;
35558;SDS011;21661;50.794;-1.066;2023-03-01T01:21:07;18.92;;;12.35;;
35558;SDS011;21661;50.794;-1.066;2023-03-01T01:23:38;16.98;;;11.02;;
35558;SDS011;21661;50.794;-1.066;2023-03-01T01:26:09;21.55;;;12.63;;
35558;SDS011;21661;50.794;-1.066;2023-03-01T01:28:36;19.38;;;11.77;;
35558;SDS011;21661;50.794;-1.066;2023-03-01T01:31:02;20.83;;;12.07;;
35558;SDS011;21661;50.794;-1.066;2023-03-01T01:33:29;18.67;;;12.43;;
35558;SDS011;21661;50.794;-1.066;2023-03-01T01:35:54;20.20;;;11.45;;
35558;SDS011;21661;50.794;-1.066;2023-03-01T01:38:20;21.20;;;12.48;;
35558;SDS011;21661;50.794;-1.066;2023-03-01T01:40:46;19.02;;;11.57;;
35558;SDS011;21661;50.794;-1.066;2023-03-01T01:43:26;21.77;;;13.60;;
35558;SDS011;21661;50.794;-1.066;2023-03-01T01:48:28;20.88;;;12.55;;
35558;SDS011;21661;50.794;-1.066;2023-03-01T01:51:05;22.85;;;12.45;;
35558;SDS011;21661;50.794;-1.066;2023-03-01T01:53:35;21.05;;;12.18;;
35558;SDS011;21661;50.794;-1.066;2023-03-01T01:56:02;21.10;;;13.13;;
35558;SDS011;21661;50.794;-1.066;2023-03-01T01:58:28;23.23;;;14.10;;
35558;SDS011;21661;50.794;-1.066;2023-03-01T02:00:55;21.80;;;13.38;;
35558;SDS011;21661;50.794;-1.066;2023-03-01T02:03:28;23.70;;;13.48;;
35558;SDS011;21661;50.794;-1.066;2023-03-01T02:08:27;21.45;;;13.45;;
35558;SDS011;21661;50.794;-1.066;2023-03-01T02:10:55;22.73;;;13.80;;
35558;SDS011;21661;50.794;-1.066;2023-03-01T02:13:22;21.95;;;14.20;;
35558;SDS011;21661;50.794;-1.066;2023-03-01T02:15:48;24.63;;;13.82;;
35558;SDS011;21661;50.794;-1.066;2023-03-01T02:18:15;22.20;;;13.57;;
35558;SDS011;21661;50.794;-1.066;2023-03-01T02:23:30;23.80;;;14.63;;
35558;SDS011;21661;50.794;-1.066;2023-03-01T02:28:32;22.42;;;13.73;;
35558;SDS011;21661;50.794;-1.066;2023-03-01T02:31:03;25.45;;;15.15;;
35558;SDS011;21661;50.794;-1.066;2023-03-01T02:33:49;27.75;;;14.52;;
35558;SDS011;21661;50.794;-1.066;2023-03-01T02:36:17;23.27;;;13.60;;
35558;SDS011;21661;50.794;-1.066;2023-03-01T02:38:45;26.08;;;15.38;;
35558;SDS011;21661;50.794;-1.066;2023-03-01T02:41:13;27.63;;;16.75;;
35558;SDS011;21661;50.794;-1.066;2023-03-01T02:43:41;26.92;;;15.55;;
35558;SDS011;21661;50.794;-1.066;2023-03-01T02:46:08;27.67;;;15.25;;
35558;SDS011;21661;50.794;-1.066;2023-03-01T02:48:49;26.85;;;16.00;;
35558;SDS011;21661;50.794;-1.066;2023-03-01T02:51:26;29.05;;;16.70;;
35558;SDS011;21661;50.794;-1.066;2023-03-01T02:56:40;27.55;;;16.08;;
35558;SDS011;21661;50.794;-1.066;2023-03-01T02:59:07;27.73;;;15.57;;
35558;SDS011;21661;50.794;-1.066;2023-03-01T03:01:34;30.08;;;16.67;;
35558;SDS011;21661;50.794;-1.066;2023-03-01T03:04:03;29.30;;;16.73;;
35558;SDS011;21661;50.794;-1.066;2023-03-01T03:06:30;29.30;;;15.88;;
35558;SDS011;21661;50.794;-1.066;2023-03-01T03:08:56;29.73;;;16.52;;
35558;SDS011;21661;50.794;-1.066;2023-03-01T03:11:22;29.58;;;16.23;;
35558;SDS011;21661;50.794;-1.066;2023-03-01T03:13:48;29.98;;;16.45;;
35558;SDS011;21661;50.794;-1.066;2023-03-01T03:16:14;32.65;;;17.77;;
35558;SDS011;21661;50.794;-1.066;2023-03-01T03:18:40;29.55;;;17.23;;
35558;SDS011;21661;50.794;-1.066;2023-03-01T03:21:08;32.55;;;17.67;;
35558;SDS011;21661;50.794;-1.066;2023-03-01T03:23:36;28.92;;;16.98;;
35558;SDS011;21661;50.794;-1.066;2023-03-01T03:26:02;30.73;;;17.33;;
35558;SDS011;21661;50.794;-1.066;2023-03-01T03:28:29;28.38;;;16.95;;
35558;SDS011;21661;50.794;-1.066;2023-03-01T03:30:55;30.77;;;17.02;;
35558;SDS011;21661;50.794;-1.066;2023-03-01T03:33:21;28.45;;;16.75;;
35558;SDS011;21661;50.794;-1.066;2023-03-01T03:35:48;31.42;;;17.10;;
35558;SDS011;21661;50.794;-1.066;2023-03-01T03:38:15;33.08;;;17.48;;
35558;SDS011;21661;50.794;-1.066;2023-03-01T03:40:43;33.15;;;17.77;;
35558;SDS011;21661;50.794;-1.066;2023-03-01T03:43:12;28.88;;;17.23;;
35558;SDS011;21661;50.794;-1.066;2023-03-01T03:45:39;32.30;;;18.83;;
35558;SDS011;21661;50.794;-1.066;2023-03-01T03:48:05;31.77;;;17.65;;
35558;SDS011;21661;50.794;-1.066;2023-03-01T03:50:32;30.55;;;17.90;;
35558;SDS011;21661;50.794;-1.066;2023-03-01T03:53:00;28.10;;;16.98;;
35558;SDS011;21661;50.794;-1.066;2023-03-01T03:55:26;32.63;;;18.17;;
35558;SDS011;21661;50.794;-1.066;2023-03-01T03:57:56;33.97;;;18.40;;
35558;SDS011;21661;50.794;-1.066;2023-03-01T04:00:26;33.42;;;18.55;;
35558;SDS011;21661;50.794;-1.066;2023-03-01T04:02:51;32.97;;;17.75;;
35558;SDS011;21661;50.794;-1.066;2023-03-01T04:05:21;32.78;;;18.23;;
35558;SDS011;21661;50.794;-1.066;2023-03-01T04:07:47;30.80;;;17.73;;
35558;SDS011;21661;50.794;-1.066;2023-03-01T04:10:14;31.77;;;18.48;;
35558;SDS011;21661;50.794;-1.066;2023-03-01T04:12:41;31.35;;;18.20;;
35558;SDS011;21661;50.794;-1.066;2023-03-01T04:15:08;33.47;;;18.52;;
35558;SDS011;21661;50.794;-1.066;2023-03-01T04:17:41;34.10;;;18.73;;
35558;SDS011;21661;50.794;-1.066;2023-03-01T04:20:12;33.08;;;19.27;;
35558;SDS011;21661;50.794;-1.066;2023-03-01T04:22:42;35.58;;;18.80;;
35558;SDS011;21661;50.794;-1.066;2023-03-01T04:25:08;33.13;;;18.55;;
35558;SDS011;21661;50.794;-1.066;2023-03-01T04:27:34;33.22;;;18.50;;
35558;SDS011;21661;50.794;-1.066;2023-03-01T04:30:01;30.65;;;17.67;;
35558;SDS011;21661;50.794;-1.066;2023-03-01T04:32:28;35.08;;;19.05;;
35558;SDS011;21661;50.794;-1.066;2023-03-01T04:34:53;32.88;;;18.27;;
35558;SDS011;21661;50.794;-1.066;2023-03-01T04:37:19;34.65;;;18.40;;
35558;SDS011;21661;50.794;-1.066;2023-03-01T04:39:44;35.92;;;18.48;;
35558;SDS011;21661;50.794;-1.066;2023-03-01T04:42:12;35.45;;;18.65;;
35558;SDS011;21661;50.794;-1.066;2023-03-01T04:44:38;34.20;;;19.67;;
35558;SDS011;21661;50.794;-1.066;2023-03-01T04:47:04;32.75;;;18.90;;
35558;SDS011;21661;50.794;-1.066;2023-03-01T04:49:29;31.58;;;18.05;;
35558;SDS011;21661;50.794;-1.066;2023-03-01T04:51:56;32.15;;;18.10;;
35558;SDS011;21661;50.794;-1.066;2023-03-01T04:54:36;33.42;;;18.13;;
35558;SDS011;21661;50.794;-1.066;2023-03-01T04:57:02;30.77;;;18.17;;
35558;SDS011;21661;50.794;-1.066;2023-03-01T04:59:28;33.50;;;18.63;;
35558;SDS011;21661;50.794;-1.066;2023-03-01T05:01:56;30.23;;;17.90;;
35558;SDS011;21661;50.794;-1.066;2023-03-01T05:04:22;30.77;;;16.95;;
35558;SDS011;21661;50.794;-1.066;2023-03-01T05:06:49;29.50;;;16.58;;
35558;SDS011;21661;50.794;-1.066;2023-03-01T05:09:15;28.58;;;16.48;;
35558;SDS011;21661;50.794;-1.066;2023-03-01T05:11:41;29.77;;;17.48;;
35558;SDS011;21661;50.794;-1.066;2023-03-01T05:14:07;28.58;;;16.45;;
35558;SDS011;21661;50.794;-1.066;2023-03-01T05:16:34;32.83;;;16.20;;
35558;SDS011;21661;50.794;-1.066;2023-03-01T05:19:01;31.27;;;16.85;;
35558;SDS011;21661;50.794;-1.066;2023-03-01T05:21:36;28.27;;;16.45;;
35558;SDS011;21661;50.794;-1.066;2023-03-01T05:24:22;30.73;;;15.93;;
35558;SDS011;21661;50.794;-1.066;2023-03-01T05:26:48;29.90;;;16.10;;
35558;SDS011;21661;50.794;-1.066;2023-03-01T05:29:16;29.65;;;16.67;;
35558;SDS011;21661;50.794;-1.066;2023-03-01T05:31:43;28.92;;;16.90;;
35558;SDS011;21661;50.794;-1.066;2023-03-01T05:34:08;33.90;;;17.20;;
35558;SDS011;21661;50.794;-1.066;2023-03-01T05:36:34;28.50;;;16.25;;
35558;SDS011;21661;50.794;-1.066;2023-03-01T05:38:59;28.88;;;15.82;;
35558;SDS011;21661;50.794;-1.066;2023-03-01T05:41:25;30.65;;;16.48;;
35558;SDS011;21661;50.794;-1.066;2023-03-01T05:43:51;30.77;;;16.15;;
35558;SDS011;21661;50.794;-1.066;2023-03-01T05:46:16;30.60;;;15.65;;
35558;SDS011;21661;50.794;-1.066;2023-03-01T05:48:42;27.00;;;15.70;;
35558;SDS011;21661;50.794;-1.066;2023-03-01T05:51:08;24.70;;;14.98;;
35558;SDS011;21661;50.794;-1.066;2023-03-01T05:53:34;27.92;;;15.85;;
35558;SDS011;21661;50.794;-1.066;2023-03-01T05:55:59;31.85;;;15.98;;
35558;SDS011;21661;50.794;-1.066;2023-03-01T05:58:28;27.33;;;14.93;;
35558;SDS011;21661;50.794;-1.066;2023-03-01T06:00:54;30.60;;;16.25;;
35558;SDS011;21661;50.794;-1.066;2023-03-01T06:03:19;27.38;;;14.75;;
35558;SDS011;21661;50.794;-1.066;2023-03-01T06:05:45;27.27;;;15.02;;
35558;SDS011;21661;50.794;-1.066;2023-03-01T06:08:11;28.85;;;14.90;;
35558;SDS011;21661;50.794;-1.066;2023-03-01T06:10:37;25.23;;;14.32;;
35558;SDS011;21661;50.794;-1.066;2023-03-01T06:13:03;27.10;;;15.18;;
35558;SDS011;21661;50.794;-1.066;2023-03-01T06:15:29;27.88;;;14.20;;
35558;SDS011;21661;50.794;-1.066;2023-03-01T06:17:55;32.75;;;15.07;;
35558;SDS011;21661;50.794;-1.066;2023-03-01T06:20:25;24.27;;;13.73;;
35558;SDS011;21661;50.794;-1.066;2023-03-01T06:22:52;30.98;;;15.25;;
35558;SDS011;21661;50.794;-1.066;2023-03-01T06:25:19;25.35;;;14.45;;
35558;SDS011;21661;50.794;-1.066;2023-03-01T06:27:47;23.92;;;13.23;;
35558;SDS011;21661;50.794;-1.066;2023-03-01T06:30:14;23.58;;;13.10;;
35558;SDS011;21661;50.794;-1.066;2023-03-01T06:32:41;24.13;;;12.45;;
35558;SDS011;21661;50.794;-1.066;2023-03-01T06:35:07;20.58;;;11.57;;
35558;SDS011;21661;50.794;-1.066;2023-03-01T06:37:37;23.30;;;11.93;;
35558;SDS011;21661;50.794;-1.066;2023-03-01T06:40:04;20.90;;;11.57;;
35558;SDS011;21661;50.794;-1.066;2023-03-01T06:42:36;22.17;;;11.02;;
35558;SDS011;21661;50.794;-1.066;2023-03-01T06:45:02;23.95;;;11.50;;
35558;SDS011;21661;50.794;-1.066;2023-03-01T06:47:29;20.25;;;10.80;;
35558;SDS011;21661;50.794;-1.066;2023-03-01T06:49:54;21.63;;;11.45;;
35558;SDS011;21661;50.794;-1.066;2023-03-01T06:52:20;21.70;;;11.73;;
35558;SDS011;21661;50.794;-1.066;2023-03-01T06:54:45;20.70;;;11.23;;
35558;SDS011;21661;50.794;-1.066;2023-03-01T06:57:11;23.25;;;11.18;;
35558;SDS011;21661;50.794;-1.066;2023-03-01T06:59:36;19.67;;;11.15;;
35558;SDS011;21661;50.794;-1.066;2023-03-01T07:02:02;24.45;;;11.95;;
35558;SDS011;21661;50.794;-1.066;2023-03-01T07:04:27;23.52;;;12.25;;
35558;SDS011;21661;50.794;-1.066;2023-03-01T07:06:54;22.40;;;13.18;;
35558;SDS011;21661;50.794;-1.066;2023-03-01T07:09:20;23.67;;;12.20;;
35558;SDS011;21661;50.794;-1.066;2023-03-01T07:11:47;19.05;;;10.73;;
35558;SDS011;21661;50.794;-1.066;2023-03-01T07:14:13;20.33;;;10.98;;
35558;SDS011;21661;50.794;-1.066;2023-03-01T07:16:39;19.10;;;10.63;;
35558;SDS011;21661;50.794;-1.066;2023-03-01T07:19:04;19.35;;;10.13;;
35558;SDS011;21661;50.794;-1.066;2023-03-01T07:21:30;17.20;;;10.25;;
35558;SDS011;21661;50.794;-1.066;2023-03-01T07:23:56;15.13;;;8.60;;
35558;SDS011;21661;50.794;-1.066;2023-03-01T07:26:22;13.05;;;8.27;;
35558;SDS011;21661;50.794;-1.066;2023-03-01T07:28:47;15.20;;;8.50;;
35558;SDS011;21661;50.794;-1.066;2023-03-01T07:31:13;15.60;;;8.05;;
35558;SDS011;21661;50.794;-1.066;2023-03-01T07:33:39;15.57;;;8.07;;
35558;SDS011;21661;50.794;-1.066;2023-03-01T07:36:05;15.20;;;8.05;;
35558;SDS011;21661;50.794;-1.066;2023-03-01T07:38:31;15.60;;;7.68;;
35558;SDS011;21661;50.794;-1.066;2023-03-01T07:40:58;15.52;;;7.70;;
35558;SDS011;21661;50.794;-1.066;2023-03-01T07:43:25;14.20;;;7.40;;
35558;SDS011;21661;50.794;-1.066;2023-03-01T07:45:51;9.68;;;6.03;;
35558;SDS011;21661;50.794;-1.066;2023-03-01T07:48:18;11.88;;;6.32;;
35558;SDS011;21661;50.794;-1.066;2023-03-01T07:50:43;11.52;;;7.30;;
35558;SDS011;21661;50.794;-1.066;2023-03-01T07:53:09;12.27;;;7.18;;
35558;SDS011;21661;50.794;-1.066;2023-03-01T07:55:35;10.80;;;5.57;;
35558;SDS011;21661;50.794;-1.066;2023-03-01T07:58:01;11.05;;;6.50;;
35558;SDS011;21661;50.794;-1.066;2023-03-01T08:00:27;10.38;;;5.97;;
35558;SDS011;21661;50.794;-1.066;2023-03-01T08:02:53;10.43;;;6.60;;
35558;SDS011;21661;50.794;-1.066;2023-03-01T08:05:18;10.48;;;6.30;;
35558;SDS011;21661;50.794;-1.066;2023-03-01T08:07:44;10.55;;;6.22;;
35558;SDS011;21661;50.794;-1.066;2023-03-01T08:10:10;12.98;;;6.55;;
35558;SDS011;21661;50.794;-1.066;2023-03-01T08:12:36;9.48;;;5.68;;
35558;SDS011;21661;50.794;-1.066;2023-03-01T08:15:01;11.23;;;5.75;;
35558;SDS011;21661;50.794;-1.066;2023-03-01T08:17:27;12.45;;;6.43;;
35558;SDS011;21661;50.794;-1.066;2023-03-01T08:19:52;11.82;;;5.63;;
35558;SDS011;21661;50.794;-1.066;2023-03-01T08:22:18;12.52;;;5.50;;
35558;SDS011;21661;50.794;-1.066;2023-03-01T08:24:44;9.75;;;6.07;;
35558;SDS011;21661;50.794;-1.066;2023-03-01T08:27:09;12.45;;;5.80;;
35558;SDS011;21661;50.794;-1.066;2023-03-01T08:29:37;9.52;;;5.40;;
35558;SDS011;21661;50.794;-1.066;2023-03-01T08:32:02;8.30;;;5.25;;
35558;SDS011;21661;50.794;-1.066;2023-03-01T08:34:28;7.10;;;4.63;;
35558;SDS011;21661;50.794;-1.066;2023-03-01T08:36:53;7.97;;;4.60;;
35558;SDS011;21661;50.794;-1.066;2023-03-01T08:39:19;8.55;;;4.72;;
35558;SDS011;21661;50.794;-1.066;2023-03-01T08:41:45;7.75;;;4.68;;
35558;SDS011;21661;50.794;-1.066;2023-03-01T08:44:12;5.97;;;4.15;;
35558;SDS011;21661;50.794;-1.066;2023-03-01T08:46:41;6.43;;;3.97;;
35558;SDS011;21661;50.794;-1.066;2023-03-01T08:49:08;7.45;;;4.30;;
35558;SDS011;21661;50.794;-1.066;2023-03-01T08:51:38;7.55;;;4.13;;
35558;SDS011;21661;50.794;-1.066;2023-03-01T08:54:05;7.40;;;4.25;;
35558;SDS011;21661;50.794;-1.066;2023-03-01T08:56:31;10.02;;;4.82;;
35558;SDS011;21661;50.794;-1.066;2023-03-01T08:58:57;6.38;;;4.28;;
35558;SDS011;21661;50.794;-1.066;2023-03-01T09:01:23;7.47;;;4.80;;
35558;SDS011;21661;50.794;-1.066;2023-03-01T09:03:48;8.43;;;4.05;;
35558;SDS011;21661;50.794;-1.066;2023-03-01T09:06:14;10.85;;;4.72;;
35558;SDS011;21661;50.794;-1.066;2023-03-01T09:08:41;8.15;;;4.85;;
35558;SDS011;21661;50.794;-1.066;2023-03-01T09:11:09;7.05;;;4.20;;
35558;SDS011;21661;50.794;-1.066;2023-03-01T09:13:36;8.93;;;4.28;;
35558;SDS011;21661;50.794;-1.066;2023-03-01T09:16:03;6.85;;;4.55;;
35558;SDS011;21661;50.794;-1.066;2023-03-01T09:18:30;10.20;;;4.57;;
35558;SDS011;21661;50.794;-1.066;2023-03-01T09:21:03;7.75;;;4.90;;
35558;SDS011;21661;50.794;-1.066;2023-03-01T09:23:40;8.32;;;4.90;;
35558;SDS011;21661;50.794;-1.066;2023-03-01T09:26:08;7.60;;;4.72;;
35558;SDS011;21661;50.794;-1.066;2023-03-01T09:28:36;8.15;;;5.05;;
35558;SDS011;21661;50.794;-1.066;2023-03-01T09:31:03;7.85;;;5.15;;
35558;SDS011;21661;50.794;-1.066;2023-03-01T09:33:30;9.70;;;4.97;;
35558;SDS011;21661;50.794;-1.066;2023-03-01T09:35:59;8.45;;;4.57;;
35558;SDS011;21661;50.794;-1.066;2023-03-01T09:38:26;7.00;;;4.27;;
35558;SDS011;21661;50.794;-1.066;2023-03-01T09:40:53;8.48;;;4.93;;
35558;SDS011;21661;50.794;-1.066;2023-03-01T09:43:27;8.73;;;4.57;;
35558;SDS011;21661;50.794;-1.066;2023-03-01T09:45:59;7.72;;;4.53;;
35558;SDS011;21661;50.794;-1.066;2023-03-01T09:48:33;8.13;;;4.30;;
35558;SDS011;21661;50.794;-1.066;2023-03-01T09:51:09;6.65;;;3.72;;
35558;SDS011;21661;50.794;-1.066;2023-03-01T09:53:42;7.30;;;4.03;;
35558;SDS011;21661;50.794;-1.066;2023-03-01T09:58:59;5.95;;;3.38;;
35558;SDS011;21661;50.794;-1.066;2023-03-01T10:02:01;4.97;;;2.92;;
35558;SDS011;21661;50.794;-1.066;2023-03-01T10:04:49;4.75;;;3.03;;
35558;SDS011;21661;50.794;-1.066;2023-03-01T10:09:54;5.95;;;3.40;;
35558;SDS011;21661;50.794;-1.066;2023-03-01T10:12:24;7.03;;;3.70;;
35558;SDS011;21661;50.794;-1.066;2023-03-01T10:17:56;7.15;;;4.43;;
35558;SDS011;21661;50.794;-1.066;2023-03-01T10:20:41;7.60;;;4.28;;
35558;SDS011;21661;50.794;-1.066;2023-03-01T10:23:08;8.80;;;4.40;;
35558;SDS011;21661;50.794;-1.066;2023-03-01T10:31:20;8.80;;;4.47;;
35558;SDS011;21661;50.794;-1.066;2023-03-01T10:33:52;9.85;;;4.47;;
35558;SDS011;21661;50.794;-1.066;2023-03-01T10:36:20;7.00;;;4.00;;
35558;SDS011;21661;50.794;-1.066;2023-03-01T10:38:51;9.30;;;4.50;;
35558;SDS011;21661;50.794;-1.066;2023-03-01T10:41:19;5.10;;;3.55;;
35558;SDS011;21661;50.794;-1.066;2023-03-01T10:51:40;5.00;;;2.58;;
35558;SDS011;21661;50.794;-1.066;2023-03-01T10:56:52;5.55;;;2.38;;
35558;SDS011;21661;50.794;-1.066;2023-03-01T10:59:38;4.97;;;2.35;;
35558;SDS011;21661;50.794;-1.066;2023-03-01T11:02:17;6.20;;;2.55;;
35558;SDS011;21661;50.794;-1.066;2023-03-01T11:07:52;6.78;;;3.15;;
35558;SDS011;21661;50.794;-1.066;2023-03-01T11:10:29;5.07;;;2.63;;
35558;SDS011;21661;50.794;-1.066;2023-03-01T11:13:15;4.93;;;2.47;;
35558;SDS011;21661;50.794;-1.066;2023-03-01T11:15:43;4.68;;;2.25;;
35558;SDS011;21661;50.794;-1.066;2023-03-01T11:18:28;4.45;;;2.00;;
35558;SDS011;21661;50.794;-1.066;2023-03-01T11:20:55;3.72;;;1.50;;
35558;SDS011;21661;50.794;-1.066;2023-03-01T11:23:23;3.30;;;1.33;;
35558;SDS011;21661;50.794;-1.066;2023-03-01T11:25:55;2.95;;;1.20;;
35558;SDS011;21661;50.794;-1.066;2023-03-01T11:30:50;3.13;;;1.52;;
35558;SDS011;21661;50.794;-1.066;2023-03-01T11:36:11;3.53;;;1.30;;
35558;SDS011;21661;50.794;-1.066;2023-03-01T11:43:46;5.30;;;1.30;;
35558;SDS011;21661;50.794;-1.066;2023-03-01T12:06:01;5.85;;;1.02;;
35558;SDS011;21661;50.794;-1.066;2023-03-01T12:11:41;3.42;;;1.02;;
35558;SDS011;21661;50.794;-1.066;2023-03-01T12:14:41;2.92;;;1.30;;
35558;SDS011;21661;50.794;-1.066;2023-03-01T12:20:17;7.32;;;1.30;;
35558;SDS011;21661;50.794;-1.066;2023-03-01T12:25:43;7.70;;;1.30;;
35558;SDS011;21661;50.794;-1.066;2023-03-01T12:33:19;2.25;;;1.20;;
35558;SDS011;21661;50.794;-1.066;2023-03-01T12:36:12;2.42;;;1.10;;
35558;SDS011;21661;50.794;-1.066;2023-03-01T12:38:48;2.00;;;1.08;;
35558;SDS011;21661;50.794;-1.066;2023-03-01T12:49:34;2.30;;;1.20;;
35558;SDS011;21661;50.794;-1.066;2023-03-01T12:55:20;3.85;;;1.02;;
35558;SDS011;21661;50.794;-1.066;2023-03-01T13:06:10;4.45;;;1.30;;
35558;SDS011;21661;50.794;-1.066;2023-03-01T13:11:20;4.30;;;1.40;;
35558;SDS011;21661;50.794;-1.066;2023-03-01T13:13:47;3.58;;;1.50;;
35558;SDS011;21661;50.794;-1.066;2023-03-01T13:16:21;3.40;;;1.63;;
35558;SDS011;21661;50.794;-1.066;2023-03-01T13:21:40;5.43;;;1.70;;
35558;SDS011;21661;50.794;-1.066;2023-03-01T13:29:45;5.07;;;1.48;;
35558;SDS011;21661;50.794;-1.066;2023-03-01T13:32:24;2.85;;;1.23;;
35558;SDS011;21661;50.794;-1.066;2023-03-01T13:34:51;4.63;;;1.20;;
35558;SDS011;21661;50.794;-1.066;2023-03-01T13:37:25;3.13;;;1.20;;
35558;SDS011;21661;50.794;-1.066;2023-03-01T13:39:57;2.78;;;1.00;;
35558;SDS011;21661;50.794;-1.066;2023-03-01T13:42:40;3.40;;;1.00;;
35558;SDS011;21661;50.794;-1.066;2023-03-01T13:45:18;3.33;;;1.35;;
35558;SDS011;21661;50.794;-1.066;2023-03-01T13:48:24;3.00;;;1.17;;
35558;SDS011;21661;50.794;-1.066;2023-03-01T13:50:59;2.25;;;1.20;;
35558;SDS011;21661;50.794;-1.066;2023-03-01T13:53:30;3.03;;;1.05;;
35558;SDS011;21661;50.794;-1.066;2023-03-01T13:58:48;5.90;;;1.33;;
35558;SDS011;21661;50.794;-1.066;2023-03-01T14:03:50;3.40;;;1.30;;
35558;SDS011;21661;50.794;-1.066;2023-03-01T14:06:16;2.53;;;1.13;;
35558;SDS011;21661;50.794;-1.066;2023-03-01T14:08:46;4.33;;;1.40;;
35558;SDS011;21661;50.794;-1.066;2023-03-01T14:11:28;3.72;;;1.70;;
35558;SDS011;21661;50.794;-1.066;2023-03-01T14:17:12;3.70;;;1.75;;
35558;SDS011;21661;50.794;-1.066;2023-03-01T14:19:45;14.98;;;8.40;;
35558;SDS011;21661;50.794;-1.066;2023-03-01T14:24:46;8.35;;;5.03;;
35558;SDS011;21661;50.794;-1.066;2023-03-01T14:27:17;4.45;;;1.90;;
35558;SDS011;21661;50.794;-1.066;2023-03-01T14:29:44;4.50;;;1.55;;
35558;SDS011;21661;50.794;-1.066;2023-03-01T14:32:21;3.42;;;1.50;;
35558;SDS011;21661;50.794;-1.066;2023-03-01T14:34:50;4.40;;;1.47;;
35558;SDS011;21661;50.794;-1.066;2023-03-01T14:39:59;5.97;;;1.40;;
35558;SDS011;21661;50.794;-1.066;2023-03-01T14:42:27;2.58;;;1.23;;
35558;SDS011;21661;50.794;-1.066;2023-03-01T14:44:56;6.53;;;4.30;;
35558;SDS011;21661;50.794;-1.066;2023-03-01T14:47:27;4.05;;;1.77;;
35558;SDS011;21661;50.794;-1.066;2023-03-01T14:50:05;4.50;;;1.55;;
35558;SDS011;21661;50.794;-1.066;2023-03-01T14:52:38;4.82;;;1.42;;
35558;SDS011;21661;50.794;-1.066;2023-03-01T14:55:13;2.88;;;1.55;;
35558;SDS011;21661;50.794;-1.066;2023-03-01T14:57:43;3.60;;;1.90;;
35558;SDS011;21661;50.794;-1.066;2023-03-01T15:00:10;3.85;;;2.00;;
35558;SDS011;21661;50.794;-1.066;2023-03-01T15:02:46;2.60;;;1.30;;
35558;SDS011;21661;50.794;-1.066;2023-03-01T15:05:14;3.40;;;1.35;;
35558;SDS011;21661;50.794;-1.066;2023-03-01T15:07:43;4.50;;;1.80;;
35558;SDS011;21661;50.794;-1.066;2023-03-01T15:10:20;3.05;;;1.67;;
35558;SDS011;21661;50.794;-1.066;2023-03-01T15:12:48;8.50;;;2.40;;
35558;SDS011;21661;50.794;-1.066;2023-03-01T15:15:21;7.82;;;2.10;;
35558;SDS011;21661;50.794;-1.066;2023-03-01T15:17:55;4.00;;;1.65;;
35558;SDS011;21661;50.794;-1.066;2023-03-01T15:20:24;3.92;;;1.73;;
35558;SDS011;21661;50.794;-1.066;2023-03-01T15:22:53;5.07;;;1.58;;
35558;SDS011;21661;50.794;-1.066;2023-03-01T15:25:21;3.55;;;1.60;;
35558;SDS011;21661;50.794;-1.066;2023-03-01T15:27:52;4.43;;;1.83;;
35558;SDS011;21661;50.794;-1.066;2023-03-01T15:30:21;5.15;;;1.67;;
35558;SDS011;21661;50.794;-1.066;2023-03-01T15:33:15;3.03;;;1.48;;
35558;SDS011;21661;50.794;-1.066;2023-03-01T15:35:44;3.80;;;1.85;;
35558;SDS011;21661;50.794;-1.066;2023-03-01T15:41:03;6.75;;;2.30;;
35558;SDS011;21661;50.794;-1.066;2023-03-01T15:43:46;6.00;;;2.30;;
35558;SDS011;21661;50.794;-1.066;2023-03-01T15:46:33;8.27;;;2.30;;
35558;SDS011;21661;50.794;-1.066;2023-03-01T15:49:00;8.13;;;2.45;;
35558;SDS011;21661;50.794;-1.066;2023-03-01T15:53:58;5.85;;;2.05;;
35558;SDS011;21661;50.794;-1.066;2023-03-01T15:56:26;3.38;;;2.10;;
35558;SDS011;21661;50.794;-1.066;2023-03-01T15:58:52;5.82;;;2.28;;
35558;SDS011;21661;50.794;-1.066;2023-03-01T16:01:17;4.95;;;1.85;;
35558;SDS011;21661;50.794;-1.066;2023-03-01T16:03:43;6.18;;;2.05;;
35558;SDS011;21661;50.794;-1.066;2023-03-01T16:06:10;5.90;;;2.35;;
35558;SDS011;21661;50.794;-1.066;2023-03-01T16:08:36;8.90;;;3.83;;
35558;SDS011;21661;50.794;-1.066;2023-03-01T16:11:02;5.97;;;2.85;;
35558;SDS011;21661;50.794;-1.066;2023-03-01T16:13:36;6.00;;;2.60;;
35558;SDS011;21661;50.794;-1.066;2023-03-01T16:16:02;44.80;;;6.28;;
35558;SDS011;21661;50.794;-1.066;2023-03-01T16:18:27;5.53;;;2.33;;
35558;SDS011;21661;50.794;-1.066;2023-03-01T16:20:53;4.82;;;2.40;;
35558;SDS011;21661;50.794;-1.066;2023-03-01T16:23:19;5.43;;;2.28;;
35558;SDS011;21661;50.794;-1.066;2023-03-01T16:25:46;6.55;;;2.60;;
35558;SDS011;21661;50.794;-1.066;2023-03-01T16:28:11;5.93;;;2.70;;
35558;SDS011;21661;50.794;-1.066;2023-03-01T16:30:38;4.70;;;2.47;;
35558;SDS011;21661;50.794;-1.066;2023-03-01T16:33:04;5.13;;;2.20;;
35558;SDS011;21661;50.794;-1.066;2023-03-01T16:35:33;11.45;;;3.33;;
35558;SDS011;21661;50.794;-1.066;2023-03-01T16:40:30;6.30;;;2.63;;
35558;SDS011;21661;50.794;-1.066;2023-03-01T16:42:56;6.93;;;2.40;;
35558;SDS011;21661;50.794;-1.066;2023-03-01T16:45:24;6.38;;;2.80;;
35558;SDS011;21661;50.794;-1.066;2023-03-01T16:47:51;3.70;;;2.10;;
35558;SDS011;21661;50.794;-1.066;2023-03-01T16:50:16;4.60;;;2.20;;